sensor_id;sensor_type;location;lat;lon;timestamp;P1;durP1;ratioP1;P2;durP2;ratioP2
58864;SDS011;45702;52.982;6.658;2023-04-15T00:01:05;26.02;;;10.60;;
58864;SDS011;45702;52.982;6.658;2023-04-15T00:03:30;21.85;;;9.90;;
58864;SDS011;45702;52.982;6.658;2023-04-15T00:05:58;18.88;;;9.50;;
58864;SDS011;45702;52.982;6.658;2023-04-15T00:08:24;23.60;;;9.90;;
58864;SDS011;45702;52.982;6.658;2023-04-15T00:10:49;21.40;;;9.90;;
58864;SDS011;45702;52.982;6.658;2023-04-15T00:13:15;21.83;;;10.23;;
58864;SDS011;45702;52.982;6.658;2023-04-15T00:15:41;22.27;;;10.55;;
58864;SDS011;45702;52.982;6.658;2023-04-15T00:18:07;22.73;;;10.68;;
58864;SDS011;45702;52.982;6.658;2023-04-15T00:20:33;26.90;;;11.05;;
58864;SDS011;45702;52.982;6.658;2023-04-15T00:22:59;23.88;;;10.68;;
58864;SDS011;45702;52.982;6.658;2023-04-15T00:25:26;22.02;;;10.65;;
58864;SDS011;45702;52.982;6.658;2023-04-15T00:27:52;23.23;;;11.73;;
58864;SDS011;45702;52.982;6.658;2023-04-15T00:30:18;24.88;;;11.23;;
58864;SDS011;45702;52.982;6.658;2023-04-15T00:32:44;23.77;;;11.32;;
58864;SDS011;45702;52.982;6.658;2023-04-15T00:35:10;27.02;;;11.40;;
58864;SDS011;45702;52.982;6.658;2023-04-15T00:37:36;28.55;;;12.13;;
58864;SDS011;45702;52.982;6.658;2023-04-15T00:40:02;24.42;;;11.77;;
58864;SDS011;45702;52.982;6.658;2023-04-15T00:42:30;30.90;;;12.07;;
58864;SDS011;45702;52.982;6.658;2023-04-15T00:44:56;26.27;;;11.65;;
58864;SDS011;45702;52.982;6.658;2023-04-15T00:47:21;28.42;;;12.02;;
58864;SDS011;45702;52.982;6.658;2023-04-15T00:49:47;27.65;;;12.40;;
58864;SDS011;45702;52.982;6.658;2023-04-15T00:52:13;26.52;;;12.52;;
58864;SDS011;45702;52.982;6.658;2023-04-15T00:54:39;28.83;;;12.48;;
58864;SDS011;45702;52.982;6.658;2023-04-15T00:57:05;26.42;;;12.38;;
58864;SDS011;45702;52.982;6.658;2023-04-15T00:59:32;29.75;;;12.18;;
58864;SDS011;45702;52.982;6.658;2023-04-15T01:01:58;25.70;;;11.93;;
58864;SDS011;45702;52.982;6.658;2023-04-15T01:04:24;25.95;;;12.48;;
58864;SDS011;45702;52.982;6.658;2023-04-15T01:06:50;29.77;;;12.70;;
58864;SDS011;45702;52.982;6.658;2023-04-15T01:09:16;33.67;;;13.00;;
58864;SDS011;45702;52.982;6.658;2023-04-15T01:11:42;31.30;;;12.82;;
58864;SDS011;45702;52.982;6.658;2023-04-15T01:14:08;26.92;;;12.57;;
58864;SDS011;45702;52.982;6.658;2023-04-15T01:16:35;31.60;;;13.80;;
58864;SDS011;45702;52.982;6.658;2023-04-15T01:19:05;30.38;;;14.55;;
58864;SDS011;45702;52.982;6.658;2023-04-15T01:21:35;31.75;;;13.90;;
58864;SDS011;45702;52.982;6.658;2023-04-15T01:24:07;32.15;;;13.30;;
58864;SDS011;45702;52.982;6.658;2023-04-15T01:26:37;28.58;;;13.73;;
58864;SDS011;45702;52.982;6.658;2023-04-15T01:29:04;32.22;;;15.02;;
58864;SDS011;45702;52.982;6.658;2023-04-15T01:31:31;32.85;;;14.45;;
58864;SDS011;45702;52.982;6.658;2023-04-15T01:33:57;37.55;;;14.32;;
58864;SDS011;45702;52.982;6.658;2023-04-15T01:36:23;30.98;;;13.93;;
58864;SDS011;45702;52.982;6.658;2023-04-15T01:38:49;33.28;;;15.10;;
58864;SDS011;45702;52.982;6.658;2023-04-15T01:41:15;29.52;;;14.73;;
58864;SDS011;45702;52.982;6.658;2023-04-15T01:43:45;32.25;;;14.50;;
58864;SDS011;45702;52.982;6.658;2023-04-15T01:46:11;34.80;;;15.40;;
58864;SDS011;45702;52.982;6.658;2023-04-15T01:48:36;33.25;;;16.33;;
58864;SDS011;45702;52.982;6.658;2023-04-15T01:51:02;30.98;;;15.60;;
58864;SDS011;45702;52.982;6.658;2023-04-15T01:53:28;29.73;;;15.07;;
58864;SDS011;45702;52.982;6.658;2023-04-15T01:55:54;36.65;;;16.00;;
58864;SDS011;45702;52.982;6.658;2023-04-15T01:58:19;34.20;;;16.10;;
58864;SDS011;45702;52.982;6.658;2023-04-15T02:00:45;33.60;;;15.80;;
58864;SDS011;45702;52.982;6.658;2023-04-15T02:03:11;33.40;;;15.60;;
58864;SDS011;45702;52.982;6.658;2023-04-15T02:05:37;37.15;;;16.63;;
58864;SDS011;45702;52.982;6.658;2023-04-15T02:08:03;39.08;;;17.48;;
58864;SDS011;45702;52.982;6.658;2023-04-15T02:10:28;40.20;;;17.35;;
58864;SDS011;45702;52.982;6.658;2023-04-15T02:12:54;36.47;;;16.83;;
58864;SDS011;45702;52.982;6.658;2023-04-15T02:15:20;33.17;;;16.75;;
58864;SDS011;45702;52.982;6.658;2023-04-15T02:17:46;40.08;;;17.40;;
58864;SDS011;45702;52.982;6.658;2023-04-15T02:20:15;42.33;;;17.50;;
58864;SDS011;45702;52.982;6.658;2023-04-15T02:22:41;42.45;;;18.25;;
58864;SDS011;45702;52.982;6.658;2023-04-15T02:25:07;42.58;;;18.52;;
58864;SDS011;45702;52.982;6.658;2023-04-15T02:27:34;37.42;;;17.05;;
58864;SDS011;45702;52.982;6.658;2023-04-15T02:30:00;39.85;;;18.38;;
58864;SDS011;45702;52.982;6.658;2023-04-15T02:32:26;41.35;;;18.60;;
58864;SDS011;45702;52.982;6.658;2023-04-15T02:34:53;40.95;;;17.85;;
58864;SDS011;45702;52.982;6.658;2023-04-15T02:37:18;42.65;;;18.52;;
58864;SDS011;45702;52.982;6.658;2023-04-15T02:39:45;44.83;;;18.80;;
58864;SDS011;45702;52.982;6.658;2023-04-15T02:42:11;43.50;;;17.90;;
58864;SDS011;45702;52.982;6.658;2023-04-15T02:44:37;41.15;;;18.35;;
58864;SDS011;45702;52.982;6.658;2023-04-15T02:47:03;41.92;;;18.85;;
58864;SDS011;45702;52.982;6.658;2023-04-15T02:49:31;38.83;;;18.45;;
58864;SDS011;45702;52.982;6.658;2023-04-15T02:51:56;40.65;;;18.98;;
58864;SDS011;45702;52.982;6.658;2023-04-15T02:54:24;43.05;;;19.00;;
58864;SDS011;45702;52.982;6.658;2023-04-15T02:59:20;36.78;;;17.17;;
58864;SDS011;45702;52.982;6.658;2023-04-15T03:01:46;38.72;;;19.58;;
58864;SDS011;45702;52.982;6.658;2023-04-15T03:04:11;45.28;;;18.98;;
58864;SDS011;45702;52.982;6.658;2023-04-15T03:06:38;42.28;;;18.30;;
58864;SDS011;45702;52.982;6.658;2023-04-15T03:09:04;47.03;;;18.73;;
58864;SDS011;45702;52.982;6.658;2023-04-15T03:11:29;45.15;;;19.50;;
58864;SDS011;45702;52.982;6.658;2023-04-15T03:13:55;43.00;;;19.17;;
58864;SDS011;45702;52.982;6.658;2023-04-15T03:16:22;38.25;;;17.70;;
58864;SDS011;45702;52.982;6.658;2023-04-15T03:18:48;46.75;;;19.15;;
58864;SDS011;45702;52.982;6.658;2023-04-15T03:21:14;42.45;;;19.90;;
58864;SDS011;45702;52.982;6.658;2023-04-15T03:23:40;49.90;;;19.73;;
58864;SDS011;45702;52.982;6.658;2023-04-15T03:26:06;43.13;;;18.70;;
58864;SDS011;45702;52.982;6.658;2023-04-15T03:28:31;41.13;;;18.48;;
58864;SDS011;45702;52.982;6.658;2023-04-15T03:30:57;40.78;;;18.48;;
58864;SDS011;45702;52.982;6.658;2023-04-15T03:33:23;43.20;;;18.83;;
58864;SDS011;45702;52.982;6.658;2023-04-15T03:35:49;42.30;;;19.50;;
58864;SDS011;45702;52.982;6.658;2023-04-15T03:38:16;43.95;;;19.55;;
58864;SDS011;45702;52.982;6.658;2023-04-15T03:40:42;45.15;;;20.63;;
58864;SDS011;45702;52.982;6.658;2023-04-15T03:43:08;44.35;;;19.38;;
58864;SDS011;45702;52.982;6.658;2023-04-15T03:45:34;44.40;;;19.70;;
58864;SDS011;45702;52.982;6.658;2023-04-15T03:48:00;45.28;;;19.80;;
58864;SDS011;45702;52.982;6.658;2023-04-15T03:50:25;42.20;;;18.27;;
58864;SDS011;45702;52.982;6.658;2023-04-15T03:52:51;38.70;;;18.63;;
58864;SDS011;45702;52.982;6.658;2023-04-15T03:55:17;43.65;;;19.17;;
58864;SDS011;45702;52.982;6.658;2023-04-15T03:57:44;45.83;;;18.55;;
58864;SDS011;45702;52.982;6.658;2023-04-15T04:00:10;46.55;;;19.30;;
58864;SDS011;45702;52.982;6.658;2023-04-15T04:02:36;42.90;;;19.40;;
58864;SDS011;45702;52.982;6.658;2023-04-15T04:05:02;43.80;;;19.25;;
58864;SDS011;45702;52.982;6.658;2023-04-15T04:07:28;39.53;;;19.17;;
58864;SDS011;45702;52.982;6.658;2023-04-15T04:09:55;47.20;;;18.98;;
58864;SDS011;45702;52.982;6.658;2023-04-15T04:12:21;42.03;;;18.13;;
58864;SDS011;45702;52.982;6.658;2023-04-15T04:14:47;41.55;;;19.83;;
58864;SDS011;45702;52.982;6.658;2023-04-15T04:17:13;42.20;;;17.88;;
58864;SDS011;45702;52.982;6.658;2023-04-15T04:19:38;43.35;;;18.77;;
58864;SDS011;45702;52.982;6.658;2023-04-15T04:22:04;42.33;;;19.95;;
58864;SDS011;45702;52.982;6.658;2023-04-15T04:24:30;42.03;;;18.92;;
58864;SDS011;45702;52.982;6.658;2023-04-15T04:26:56;41.63;;;18.75;;
58864;SDS011;45702;52.982;6.658;2023-04-15T04:29:22;42.92;;;19.52;;
58864;SDS011;45702;52.982;6.658;2023-04-15T04:31:48;44.30;;;19.75;;
58864;SDS011;45702;52.982;6.658;2023-04-15T04:34:14;44.30;;;19.27;;
58864;SDS011;45702;52.982;6.658;2023-04-15T04:36:40;49.17;;;19.73;;
58864;SDS011;45702;52.982;6.658;2023-04-15T04:39:06;42.30;;;19.48;;
58864;SDS011;45702;52.982;6.658;2023-04-15T04:41:32;48.63;;;20.27;;
58864;SDS011;45702;52.982;6.658;2023-04-15T04:43:57;50.25;;;20.65;;
58864;SDS011;45702;52.982;6.658;2023-04-15T04:46:23;47.90;;;19.38;;
58864;SDS011;45702;52.982;6.658;2023-04-15T04:48:49;45.65;;;19.23;;
58864;SDS011;45702;52.982;6.658;2023-04-15T04:51:15;49.20;;;21.13;;
58864;SDS011;45702;52.982;6.658;2023-04-15T04:53:40;51.38;;;21.92;;
58864;SDS011;45702;52.982;6.658;2023-04-15T04:56:07;57.30;;;22.83;;
58864;SDS011;45702;52.982;6.658;2023-04-15T04:58:33;57.03;;;23.55;;
58864;SDS011;45702;52.982;6.658;2023-04-15T05:00:58;62.10;;;25.17;;
58864;SDS011;45702;52.982;6.658;2023-04-15T05:03:24;67.93;;;25.40;;
58864;SDS011;45702;52.982;6.658;2023-04-15T05:05:51;63.30;;;24.33;;
58864;SDS011;45702;52.982;6.658;2023-04-15T05:08:17;73.68;;;27.10;;
58864;SDS011;45702;52.982;6.658;2023-04-15T05:10:42;68.18;;;26.00;;
58864;SDS011;45702;52.982;6.658;2023-04-15T05:13:08;67.95;;;25.45;;
58864;SDS011;45702;52.982;6.658;2023-04-15T05:15:33;66.38;;;26.10;;
58864;SDS011;45702;52.982;6.658;2023-04-15T05:18:01;64.85;;;27.50;;
58864;SDS011;45702;52.982;6.658;2023-04-15T05:20:27;70.32;;;28.27;;
58864;SDS011;45702;52.982;6.658;2023-04-15T05:22:53;72.57;;;28.40;;
58864;SDS011;45702;52.982;6.658;2023-04-15T05:25:18;82.70;;;30.30;;
58864;SDS011;45702;52.982;6.658;2023-04-15T05:27:44;81.60;;;30.75;;
58864;SDS011;45702;52.982;6.658;2023-04-15T05:30:10;88.68;;;31.33;;
58864;SDS011;45702;52.982;6.658;2023-04-15T05:32:36;93.47;;;33.40;;
58864;SDS011;45702;52.982;6.658;2023-04-15T05:35:01;91.22;;;31.48;;
58864;SDS011;45702;52.982;6.658;2023-04-15T05:37:30;89.95;;;31.90;;
58864;SDS011;45702;52.982;6.658;2023-04-15T05:39:56;98.38;;;34.08;;
58864;SDS011;45702;52.982;6.658;2023-04-15T05:42:21;101.35;;;34.97;;
58864;SDS011;45702;52.982;6.658;2023-04-15T05:44:47;97.70;;;33.25;;
58864;SDS011;45702;52.982;6.658;2023-04-15T05:47:13;120.35;;;35.40;;
58864;SDS011;45702;52.982;6.658;2023-04-15T05:49:39;126.47;;;38.00;;
58864;SDS011;45702;52.982;6.658;2023-04-15T05:52:04;126.05;;;38.05;;
58864;SDS011;45702;52.982;6.658;2023-04-15T05:54:30;131.63;;;38.05;;
58864;SDS011;45702;52.982;6.658;2023-04-15T05:56:56;122.20;;;38.08;;
58864;SDS011;45702;52.982;6.658;2023-04-15T05:59:22;117.18;;;37.55;;
58864;SDS011;45702;52.982;6.658;2023-04-15T06:01:48;116.15;;;36.85;;
58864;SDS011;45702;52.982;6.658;2023-04-15T06:04:15;109.23;;;36.57;;
58864;SDS011;45702;52.982;6.658;2023-04-15T06:06:41;112.63;;;36.72;;
58864;SDS011;45702;52.982;6.658;2023-04-15T06:09:07;105.15;;;36.33;;
58864;SDS011;45702;52.982;6.658;2023-04-15T06:11:32;98.20;;;33.70;;
58864;SDS011;45702;52.982;6.658;2023-04-15T06:13:58;99.38;;;34.33;;
58864;SDS011;45702;52.982;6.658;2023-04-15T06:16:24;98.93;;;35.03;;
58864;SDS011;45702;52.982;6.658;2023-04-15T06:18:50;93.25;;;33.70;;
58864;SDS011;45702;52.982;6.658;2023-04-15T06:21:15;92.18;;;32.85;;
58864;SDS011;45702;52.982;6.658;2023-04-15T06:23:41;91.95;;;32.85;;
58864;SDS011;45702;52.982;6.658;2023-04-15T06:26:07;98.63;;;35.55;;
58864;SDS011;45702;52.982;6.658;2023-04-15T06:28:32;91.30;;;32.90;;
58864;SDS011;45702;52.982;6.658;2023-04-15T06:30:58;81.38;;;31.27;;
58864;SDS011;45702;52.982;6.658;2023-04-15T06:33:25;77.07;;;31.10;;
58864;SDS011;45702;52.982;6.658;2023-04-15T06:35:51;80.50;;;29.77;;
58864;SDS011;45702;52.982;6.658;2023-04-15T06:38:16;82.38;;;31.00;;
58864;SDS011;45702;52.982;6.658;2023-04-15T06:40:42;77.93;;;30.60;;
58864;SDS011;45702;52.982;6.658;2023-04-15T06:43:08;69.10;;;28.63;;
58864;SDS011;45702;52.982;6.658;2023-04-15T06:45:34;71.10;;;29.35;;
58864;SDS011;45702;52.982;6.658;2023-04-15T06:47:59;70.28;;;28.58;;
58864;SDS011;45702;52.982;6.658;2023-04-15T06:50:25;70.80;;;27.98;;
58864;SDS011;45702;52.982;6.658;2023-04-15T06:52:52;62.70;;;25.50;;
58864;SDS011;45702;52.982;6.658;2023-04-15T06:55:18;59.50;;;24.67;;
58864;SDS011;45702;52.982;6.658;2023-04-15T06:57:44;56.83;;;24.73;;
58864;SDS011;45702;52.982;6.658;2023-04-15T07:00:10;55.30;;;24.05;;
58864;SDS011;45702;52.982;6.658;2023-04-15T07:02:36;56.00;;;24.05;;
58864;SDS011;45702;52.982;6.658;2023-04-15T07:05:02;59.17;;;24.13;;
58864;SDS011;45702;52.982;6.658;2023-04-15T07:07:28;59.60;;;23.27;;
58864;SDS011;45702;52.982;6.658;2023-04-15T07:09:54;51.67;;;22.20;;
58864;SDS011;45702;52.982;6.658;2023-04-15T07:12:20;49.70;;;22.73;;
58864;SDS011;45702;52.982;6.658;2023-04-15T07:14:46;53.88;;;21.63;;
58864;SDS011;45702;52.982;6.658;2023-04-15T07:17:11;45.97;;;19.90;;
58864;SDS011;45702;52.982;6.658;2023-04-15T07:19:37;46.13;;;19.30;;
58864;SDS011;45702;52.982;6.658;2023-04-15T07:22:03;45.53;;;18.65;;
58864;SDS011;45702;52.982;6.658;2023-04-15T07:24:29;41.75;;;17.70;;
58864;SDS011;45702;52.982;6.658;2023-04-15T07:26:55;37.22;;;16.60;;
58864;SDS011;45702;52.982;6.658;2023-04-15T07:29:22;40.90;;;18.02;;
58864;SDS011;45702;52.982;6.658;2023-04-15T07:31:48;38.15;;;17.45;;
58864;SDS011;45702;52.982;6.658;2023-04-15T07:34:14;31.10;;;15.50;;
58864;SDS011;45702;52.982;6.658;2023-04-15T07:36:40;35.78;;;16.13;;
58864;SDS011;45702;52.982;6.658;2023-04-15T07:39:07;34.13;;;14.98;;
58864;SDS011;45702;52.982;6.658;2023-04-15T07:41:32;29.95;;;14.68;;
58864;SDS011;45702;52.982;6.658;2023-04-15T07:43:58;35.10;;;15.82;;
58864;SDS011;45702;52.982;6.658;2023-04-15T07:46:24;31.45;;;14.63;;
58864;SDS011;45702;52.982;6.658;2023-04-15T07:48:51;31.40;;;14.20;;
58864;SDS011;45702;52.982;6.658;2023-04-15T07:51:18;33.63;;;14.18;;
58864;SDS011;45702;52.982;6.658;2023-04-15T07:53:45;30.88;;;14.18;;
58864;SDS011;45702;52.982;6.658;2023-04-15T07:56:12;30.23;;;13.50;;
58864;SDS011;45702;52.982;6.658;2023-04-15T07:58:38;30.15;;;13.82;;
58864;SDS011;45702;52.982;6.658;2023-04-15T08:01:04;30.70;;;13.00;;
58864;SDS011;45702;52.982;6.658;2023-04-15T08:03:30;27.60;;;12.73;;
58864;SDS011;45702;52.982;6.658;2023-04-15T08:05:56;27.83;;;12.57;;
58864;SDS011;45702;52.982;6.658;2023-04-15T08:08:21;27.05;;;12.40;;
58864;SDS011;45702;52.982;6.658;2023-04-15T08:10:47;26.20;;;11.88;;
58864;SDS011;45702;52.982;6.658;2023-04-15T08:13:14;25.02;;;11.20;;
58864;SDS011;45702;52.982;6.658;2023-04-15T08:15:40;26.15;;;12.07;;
58864;SDS011;45702;52.982;6.658;2023-04-15T08:18:06;26.67;;;11.70;;
58864;SDS011;45702;52.982;6.658;2023-04-15T08:20:32;21.63;;;9.80;;
58864;SDS011;45702;52.982;6.658;2023-04-15T08:22:57;20.60;;;9.32;;
58864;SDS011;45702;52.982;6.658;2023-04-15T08:25:23;20.73;;;9.55;;
58864;SDS011;45702;52.982;6.658;2023-04-15T08:27:49;22.73;;;9.07;;
58864;SDS011;45702;52.982;6.658;2023-04-15T08:30:16;17.70;;;8.82;;
58864;SDS011;45702;52.982;6.658;2023-04-15T08:32:46;20.75;;;8.82;;
58864;SDS011;45702;52.982;6.658;2023-04-15T08:37:38;18.23;;;8.50;;
58864;SDS011;45702;52.982;6.658;2023-04-15T08:40:03;17.42;;;8.55;;
58864;SDS011;45702;52.982;6.658;2023-04-15T08:42:35;15.27;;;8.38;;
58864;SDS011;45702;52.982;6.658;2023-04-15T08:45:05;19.90;;;8.30;;
58864;SDS011;45702;52.982;6.658;2023-04-15T08:47:35;18.73;;;8.35;;
58864;SDS011;45702;52.982;6.658;2023-04-15T08:52:30;17.05;;;7.50;;
58864;SDS011;45702;52.982;6.658;2023-04-15T08:54:56;17.15;;;8.30;;
58864;SDS011;45702;52.982;6.658;2023-04-15T08:57:25;15.60;;;7.93;;
58864;SDS011;45702;52.982;6.658;2023-04-15T08:59:52;22.65;;;8.65;;
58864;SDS011;45702;52.982;6.658;2023-04-15T09:02:22;15.20;;;8.13;;
58864;SDS011;45702;52.982;6.658;2023-04-15T09:04:49;20.07;;;7.50;;
58864;SDS011;45702;52.982;6.658;2023-04-15T09:07:16;15.45;;;7.47;;
58864;SDS011;45702;52.982;6.658;2023-04-15T09:09:41;16.95;;;8.05;;
58864;SDS011;45702;52.982;6.658;2023-04-15T09:12:07;16.35;;;7.20;;
58864;SDS011;45702;52.982;6.658;2023-04-15T09:14:34;17.88;;;7.78;;
58864;SDS011;45702;52.982;6.658;2023-04-15T09:17:03;18.85;;;7.63;;
58864;SDS011;45702;52.982;6.658;2023-04-15T09:19:29;12.90;;;5.95;;
58864;SDS011;45702;52.982;6.658;2023-04-15T09:21:56;12.25;;;5.85;;
58864;SDS011;45702;52.982;6.658;2023-04-15T09:24:23;11.43;;;5.03;;
58864;SDS011;45702;52.982;6.658;2023-04-15T09:26:53;9.80;;;4.50;;
58864;SDS011;45702;52.982;6.658;2023-04-15T09:29:25;8.07;;;4.55;;
58864;SDS011;45702;52.982;6.658;2023-04-15T09:31:50;10.75;;;4.00;;
58864;SDS011;45702;52.982;6.658;2023-04-15T09:34:17;7.55;;;3.90;;
58864;SDS011;45702;52.982;6.658;2023-04-15T09:39:11;8.68;;;3.55;;
58864;SDS011;45702;52.982;6.658;2023-04-15T09:41:38;7.93;;;3.40;;
58864;SDS011;45702;52.982;6.658;2023-04-15T09:44:05;7.40;;;3.60;;
58864;SDS011;45702;52.982;6.658;2023-04-15T09:46:43;7.18;;;3.42;;
58864;SDS011;45702;52.982;6.658;2023-04-15T09:51:36;6.40;;;3.72;;
58864;SDS011;45702;52.982;6.658;2023-04-15T09:54:02;5.45;;;3.42;;
58864;SDS011;45702;52.982;6.658;2023-04-15T09:56:35;5.35;;;3.63;;
58864;SDS011;45702;52.982;6.658;2023-04-15T09:59:03;9.25;;;4.20;;
58864;SDS011;45702;52.982;6.658;2023-04-15T10:01:29;6.93;;;3.75;;
58864;SDS011;45702;52.982;6.658;2023-04-15T10:03:56;7.25;;;4.00;;
58864;SDS011;45702;52.982;6.658;2023-04-15T10:06:24;8.00;;;3.78;;
58864;SDS011;45702;52.982;6.658;2023-04-15T10:08:50;9.77;;;4.00;;
58864;SDS011;45702;52.982;6.658;2023-04-15T10:11:20;8.57;;;4.68;;
58864;SDS011;45702;52.982;6.658;2023-04-15T10:13:48;8.43;;;4.10;;
58864;SDS011;45702;52.982;6.658;2023-04-15T10:16:15;11.20;;;4.30;;
58864;SDS011;45702;52.982;6.658;2023-04-15T10:18:44;5.93;;;4.00;;
58864;SDS011;45702;52.982;6.658;2023-04-15T10:21:12;7.73;;;4.00;;
58864;SDS011;45702;52.982;6.658;2023-04-15T10:23:42;7.63;;;4.20;;
58864;SDS011;45702;52.982;6.658;2023-04-15T10:26:11;7.30;;;4.05;;
58864;SDS011;45702;52.982;6.658;2023-04-15T10:28:39;8.85;;;4.10;;
58864;SDS011;45702;52.982;6.658;2023-04-15T10:31:05;8.73;;;3.80;;
58864;SDS011;45702;52.982;6.658;2023-04-15T10:33:31;7.07;;;3.60;;
58864;SDS011;45702;52.982;6.658;2023-04-15T10:35:59;6.95;;;4.10;;
58864;SDS011;45702;52.982;6.658;2023-04-15T10:41:16;8.77;;;3.78;;
58864;SDS011;45702;52.982;6.658;2023-04-15T10:46:40;6.22;;;3.20;;
58864;SDS011;45702;52.982;6.658;2023-04-15T10:49:08;8.23;;;3.30;;
58864;SDS011;45702;52.982;6.658;2023-04-15T10:51:41;6.43;;;3.47;;
58864;SDS011;45702;52.982;6.658;2023-04-15T10:54:12;9.30;;;3.33;;
58864;SDS011;45702;52.982;6.658;2023-04-15T10:56:43;9.30;;;3.38;;
58864;SDS011;45702;52.982;6.658;2023-04-15T10:59:09;8.75;;;3.50;;
58864;SDS011;45702;52.982;6.658;2023-04-15T11:01:55;8.88;;;3.85;;
58864;SDS011;45702;52.982;6.658;2023-04-15T11:07:31;8.95;;;3.90;;
58864;SDS011;45702;52.982;6.658;2023-04-15T11:09:58;10.23;;;3.80;;
58864;SDS011;45702;52.982;6.658;2023-04-15T11:12:32;11.68;;;4.25;;
58864;SDS011;45702;52.982;6.658;2023-04-15T11:14:59;8.68;;;4.15;;
58864;SDS011;45702;52.982;6.658;2023-04-15T11:18:11;10.60;;;3.92;;
58864;SDS011;45702;52.982;6.658;2023-04-15T11:20:41;9.68;;;4.00;;
58864;SDS011;45702;52.982;6.658;2023-04-15T11:23:11;11.20;;;4.10;;
58864;SDS011;45702;52.982;6.658;2023-04-15T11:25:38;8.75;;;4.30;;
58864;SDS011;45702;52.982;6.658;2023-04-15T11:28:06;9.63;;;4.38;;
58864;SDS011;45702;52.982;6.658;2023-04-15T11:30:32;12.63;;;4.30;;
58864;SDS011;45702;52.982;6.658;2023-04-15T11:33:00;12.23;;;5.03;;
58864;SDS011;45702;52.982;6.658;2023-04-15T11:35:28;11.85;;;4.60;;
58864;SDS011;45702;52.982;6.658;2023-04-15T11:37:54;11.52;;;4.63;;
58864;SDS011;45702;52.982;6.658;2023-04-15T11:40:27;15.77;;;5.20;;
58864;SDS011;45702;52.982;6.658;2023-04-15T11:45:31;10.93;;;4.60;;
58864;SDS011;45702;52.982;6.658;2023-04-15T11:48:10;15.48;;;4.47;;
58864;SDS011;45702;52.982;6.658;2023-04-15T11:50:37;12.80;;;4.70;;
58864;SDS011;45702;52.982;6.658;2023-04-15T11:53:07;10.35;;;4.25;;
58864;SDS011;45702;52.982;6.658;2023-04-15T11:55:44;17.97;;;4.70;;
58864;SDS011;45702;52.982;6.658;2023-04-15T11:58:21;15.15;;;4.45;;
58864;SDS011;45702;52.982;6.658;2023-04-15T12:03:22;12.52;;;3.60;;
58864;SDS011;45702;52.982;6.658;2023-04-15T12:16:36;7.28;;;3.58;;
58864;SDS011;45702;52.982;6.658;2023-04-15T12:19:10;10.50;;;3.60;;
58864;SDS011;45702;52.982;6.658;2023-04-15T12:21:39;10.00;;;3.55;;
58864;SDS011;45702;52.982;6.658;2023-04-15T12:26:36;12.85;;;3.97;;
58864;SDS011;45702;52.982;6.658;2023-04-15T12:29:07;13.57;;;4.13;;
58864;SDS011;45702;52.982;6.658;2023-04-15T12:31:34;11.65;;;3.65;;
58864;SDS011;45702;52.982;6.658;2023-04-15T12:36:31;12.88;;;3.90;;
58864;SDS011;45702;52.982;6.658;2023-04-15T12:41:29;10.93;;;3.38;;
58864;SDS011;45702;52.982;6.658;2023-04-15T12:43:55;14.38;;;3.72;;
58864;SDS011;45702;52.982;6.658;2023-04-15T12:46:21;15.13;;;4.10;;
58864;SDS011;45702;52.982;6.658;2023-04-15T12:48:47;10.63;;;3.60;;
58864;SDS011;45702;52.982;6.658;2023-04-15T12:51:14;11.20;;;3.88;;
58864;SDS011;45702;52.982;6.658;2023-04-15T12:53:39;12.40;;;3.95;;
58864;SDS011;45702;52.982;6.658;2023-04-15T12:56:05;9.27;;;3.78;;
58864;SDS011;45702;52.982;6.658;2023-04-15T12:58:31;13.18;;;3.75;;
58864;SDS011;45702;52.982;6.658;2023-04-15T13:00:57;10.27;;;4.18;;
58864;SDS011;45702;52.982;6.658;2023-04-15T13:03:23;11.73;;;3.88;;
58864;SDS011;45702;52.982;6.658;2023-04-15T13:05:49;12.82;;;4.10;;
58864;SDS011;45702;52.982;6.658;2023-04-15T13:08:15;11.65;;;4.28;;
58864;SDS011;45702;52.982;6.658;2023-04-15T13:10:40;18.17;;;4.07;;
58864;SDS011;45702;52.982;6.658;2023-04-15T13:13:07;12.57;;;3.78;;
58864;SDS011;45702;52.982;6.658;2023-04-15T13:15:33;13.70;;;4.18;;
58864;SDS011;45702;52.982;6.658;2023-04-15T13:17:59;12.25;;;4.07;;
58864;SDS011;45702;52.982;6.658;2023-04-15T13:20:25;5.80;;;3.22;;
58864;SDS011;45702;52.982;6.658;2023-04-15T13:25:19;13.60;;;3.90;;
58864;SDS011;45702;52.982;6.658;2023-04-15T13:27:45;19.27;;;4.10;;
58864;SDS011;45702;52.982;6.658;2023-04-15T13:30:11;13.98;;;4.07;;
58864;SDS011;45702;52.982;6.658;2023-04-15T13:32:37;14.13;;;4.22;;
58864;SDS011;45702;52.982;6.658;2023-04-15T13:35:03;10.30;;;4.07;;
58864;SDS011;45702;52.982;6.658;2023-04-15T13:37:29;18.13;;;4.40;;
58864;SDS011;45702;52.982;6.658;2023-04-15T13:39:55;15.63;;;4.05;;
58864;SDS011;45702;52.982;6.658;2023-04-15T13:42:24;13.15;;;4.38;;
58864;SDS011;45702;52.982;6.658;2023-04-15T13:44:51;9.98;;;4.13;;
58864;SDS011;45702;52.982;6.658;2023-04-15T13:47:20;12.77;;;3.90;;
58864;SDS011;45702;52.982;6.658;2023-04-15T13:49:46;15.18;;;4.25;;
58864;SDS011;45702;52.982;6.658;2023-04-15T13:52:12;13.80;;;4.25;;
58864;SDS011;45702;52.982;6.658;2023-04-15T13:54:37;15.95;;;4.20;;
58864;SDS011;45702;52.982;6.658;2023-04-15T13:57:04;13.43;;;4.13;;
58864;SDS011;45702;52.982;6.658;2023-04-15T13:59:30;14.18;;;4.20;;
58864;SDS011;45702;52.982;6.658;2023-04-15T14:01:57;12.35;;;3.88;;
58864;SDS011;45702;52.982;6.658;2023-04-15T14:04:22;19.23;;;3.83;;
58864;SDS011;45702;52.982;6.658;2023-04-15T14:06:48;10.00;;;3.63;;
58864;SDS011;45702;52.982;6.658;2023-04-15T14:09:14;14.32;;;4.28;;
58864;SDS011;45702;52.982;6.658;2023-04-15T14:11:40;17.90;;;4.35;;
58864;SDS011;45702;52.982;6.658;2023-04-15T14:14:06;20.00;;;4.30;;
58864;SDS011;45702;52.982;6.658;2023-04-15T14:16:33;14.07;;;3.85;;
58864;SDS011;45702;52.982;6.658;2023-04-15T14:18:59;12.20;;;4.18;;
58864;SDS011;45702;52.982;6.658;2023-04-15T14:21:26;15.85;;;3.90;;
58864;SDS011;45702;52.982;6.658;2023-04-15T14:23:56;17.52;;;4.07;;
58864;SDS011;45702;52.982;6.658;2023-04-15T14:26:22;17.50;;;4.53;;
58864;SDS011;45702;52.982;6.658;2023-04-15T14:28:48;13.75;;;4.28;;
58864;SDS011;45702;52.982;6.658;2023-04-15T14:31:14;16.48;;;4.35;;
58864;SDS011;45702;52.982;6.658;2023-04-15T14:33:39;16.55;;;4.80;;
58864;SDS011;45702;52.982;6.658;2023-04-15T14:36:06;14.45;;;4.60;;
58864;SDS011;45702;52.982;6.658;2023-04-15T14:38:33;17.67;;;4.82;;
58864;SDS011;45702;52.982;6.658;2023-04-15T14:41:04;15.80;;;5.20;;
58864;SDS011;45702;52.982;6.658;2023-04-15T14:43:30;16.83;;;5.40;;
58864;SDS011;45702;52.982;6.658;2023-04-15T14:45:56;21.55;;;5.32;;
58864;SDS011;45702;52.982;6.658;2023-04-15T14:48:22;17.13;;;5.20;;
58864;SDS011;45702;52.982;6.658;2023-04-15T14:50:47;16.30;;;5.07;;
58864;SDS011;45702;52.982;6.658;2023-04-15T14:53:13;15.50;;;4.85;;
58864;SDS011;45702;52.982;6.658;2023-04-15T14:55:39;18.80;;;6.00;;
58864;SDS011;45702;52.982;6.658;2023-04-15T14:58:05;15.88;;;5.30;;
58864;SDS011;45702;52.982;6.658;2023-04-15T15:00:33;17.17;;;5.35;;
58864;SDS011;45702;52.982;6.658;2023-04-15T15:03:00;19.63;;;5.35;;
58864;SDS011;45702;52.982;6.658;2023-04-15T15:05:26;14.35;;;4.63;;
58864;SDS011;45702;52.982;6.658;2023-04-15T15:07:51;27.40;;;5.55;;
58864;SDS011;45702;52.982;6.658;2023-04-15T15:10:17;18.20;;;5.70;;
58864;SDS011;45702;52.982;6.658;2023-04-15T15:12:43;21.02;;;6.28;;